createdAt,value
2022-10-23T00:01:24.605Z,5.03
2022-10-23T00:03:54.213Z,4.68
2022-10-23T00:06:23.053Z,4.28
2022-10-23T00:08:50.088Z,6.40
2022-10-23T00:11:20.722Z,2.50
2022-10-23T00:13:48.614Z,5.65
2022-10-23T00:16:16.134Z,2.85
2022-10-23T00:18:43.252Z,4.22
2022-10-23T00:21:12.685Z,7.15
2022-10-23T00:23:43.572Z,5.95
2022-10-23T00:26:16.571Z,3.38
2022-10-23T00:28:45.460Z,5.68
2022-10-23T00:31:12.641Z,3.85
2022-10-23T00:33:41.424Z,4.90
2022-10-23T00:36:10.190Z,6.40
2022-10-23T00:38:38.318Z,1.65
2022-10-23T00:41:06.703Z,8.02
2022-10-23T00:43:34.970Z,3.08
2022-10-23T00:46:01.788Z,2.95
2022-10-23T00:48:29.444Z,3.20
2022-10-23T00:50:56.889Z,3.40
2022-10-23T00:53:24.825Z,3.63
2022-10-23T00:55:54.010Z,5.70
2022-10-23T00:58:21.903Z,5.50
2022-10-23T01:00:51.448Z,5.25
2022-10-23T01:03:22.714Z,4.82
2022-10-23T01:06:00.227Z,4.53
2022-10-23T01:08:46.601Z,3.70
2022-10-23T01:11:33.655Z,2.95
2022-10-23T01:14:29.938Z,2.75
2022-10-23T01:17:22.468Z,6.57
2022-10-23T01:20:01.657Z,1.77
2022-10-23T01:22:53.876Z,6.50
2022-10-23T01:25:47.180Z,3.85
2022-10-23T01:28:21.005Z,2.85
2022-10-23T01:30:49.273Z,2.38
2022-10-23T01:33:26.156Z,3.22
2022-10-23T01:36:02.634Z,4.53
2022-10-23T01:38:39.762Z,3.45
2022-10-23T01:41:29.219Z,2.70
2022-10-23T01:44:11.705Z,2.13
2022-10-23T01:46:39.702Z,2.28
2022-10-23T01:49:11.393Z,3.47
2022-10-23T01:51:42.343Z,3.10
2022-10-23T01:54:13.298Z,3.67
2022-10-23T01:56:44.469Z,2.60
2022-10-23T01:59:17.393Z,2.60
2022-10-23T02:01:48.661Z,1.88
2022-10-23T02:04:46.894Z,4.55
2022-10-23T02:07:13.985Z,2.58
2022-10-23T02:09:40.886Z,2.28
2022-10-23T02:12:12.435Z,3.25
2022-10-23T02:14:44.723Z,4.40
2022-10-23T02:17:38.970Z,3.25
2022-10-23T02:20:17.684Z,1.63
2022-10-23T02:23:20.821Z,5.78
2022-10-23T02:25:56.798Z,2.22
2022-10-23T02:28:28.937Z,5.15
2022-10-23T02:31:02.931Z,2.78
2022-10-23T02:33:31.705Z,6.95
2022-10-23T02:35:58.691Z,2.10
2022-10-23T02:38:41.229Z,7.53
2022-10-23T02:41:32.324Z,3.72
2022-10-23T02:44:22.076Z,1.60
2022-10-23T02:46:58.670Z,2.53
2022-10-23T02:49:44.553Z,4.13
2022-10-23T02:52:25.169Z,3.38
2022-10-23T02:55:05.086Z,1.58
2022-10-23T02:57:48.551Z,4.07
2022-10-23T03:00:21.005Z,2.25
2022-10-23T03:03:03.911Z,3.05
2022-10-23T03:05:40.809Z,2.13
2022-10-23T03:08:09.943Z,4.75
2022-10-23T03:10:36.976Z,5.20
2022-10-23T03:13:06.083Z,5.60
2022-10-23T03:15:40.309Z,3.65
2022-10-23T03:18:11.968Z,2.55
2022-10-23T03:20:39.951Z,2.47
2022-10-23T03:23:06.797Z,2.47
2022-10-23T03:25:33.663Z,1.85
2022-10-23T03:28:02.033Z,1.55
2022-10-23T03:30:29.650Z,1.63
2022-10-23T03:32:56.569Z,3.85
2022-10-23T03:35:23.366Z,4.22
2022-10-23T03:37:50.660Z,1.88
2022-10-23T03:40:17.559Z,3.20
2022-10-23T03:42:44.847Z,3.55
2022-10-23T03:45:16.055Z,3.13
2022-10-23T03:47:43.244Z,3.72
2022-10-23T03:50:10.798Z,1.60
2022-10-23T03:52:38.013Z,3.28
2022-10-23T03:55:05.790Z,5.68
2022-10-23T03:57:33.143Z,2.08
2022-10-23T04:00:00.033Z,3.65
2022-10-23T04:02:32.690Z,5.75
2022-10-23T04:04:59.592Z,4.20
2022-10-23T04:07:29.230Z,1.40
2022-10-23T04:09:56.803Z,2.28
2022-10-23T04:12:24.219Z,3.85
2022-10-23T04:14:52.033Z,2.75
2022-10-23T04:17:19.263Z,2.20
2022-10-23T04:19:49.605Z,3.70
2022-10-23T04:22:16.477Z,1.52
2022-10-23T04:24:46.649Z,3.38
2022-10-23T04:27:18.140Z,1.63
2022-10-23T04:29:45.048Z,1.52
2022-10-23T04:32:13.091Z,1.65
2022-10-23T04:34:40.170Z,3.08
2022-10-23T04:37:07.220Z,1.67
2022-10-23T04:39:34.103Z,2.30
2022-10-23T04:42:01.023Z,2.55
2022-10-23T04:44:27.907Z,5.97
2022-10-23T04:46:54.795Z,2.50
2022-10-23T04:49:23.531Z,4.10
2022-10-23T04:52:10.399Z,4.50
2022-10-23T04:54:39.893Z,4.13
2022-10-23T04:57:21.707Z,1.95
2022-10-23T05:00:12.015Z,2.17
2022-10-23T05:02:44.805Z,6.68
2022-10-23T05:05:14.292Z,2.15
2022-10-23T05:07:41.349Z,2.25
2022-10-23T05:10:22.111Z,3.60
2022-10-23T05:12:55.971Z,2.35
2022-10-23T05:15:25.100Z,2.50
2022-10-23T05:17:58.593Z,2.10
2022-10-23T05:20:31.127Z,2.85
2022-10-23T05:23:00.347Z,3.50
2022-10-23T05:25:31.138Z,2.00
2022-10-23T05:28:06.154Z,2.15
2022-10-23T05:30:34.051Z,3.33
2022-10-23T05:33:03.071Z,4.95
2022-10-23T05:35:37.864Z,2.33
2022-10-23T05:38:07.229Z,4.22
2022-10-23T05:40:34.390Z,1.48
2022-10-23T05:43:06.557Z,1.77
2022-10-23T05:45:54.081Z,2.03
2022-10-23T05:48:34.222Z,3.22
2022-10-23T05:51:10.407Z,3.13
2022-10-23T05:53:46.337Z,2.15
2022-10-23T05:56:42.896Z,4.57
2022-10-23T05:59:22.092Z,8.23
2022-10-23T06:02:10.069Z,2.05
2022-10-23T06:04:48.824Z,2.72
2022-10-23T06:07:15.762Z,2.20
2022-10-23T06:09:44.797Z,3.13
2022-10-23T06:12:13.065Z,2.30
2022-10-23T06:14:43.340Z,1.70
2022-10-23T06:17:10.352Z,5.43
2022-10-23T06:19:43.547Z,3.05
2022-10-23T06:22:10.457Z,1.92
2022-10-23T06:24:40.205Z,1.83
2022-10-23T06:27:11.875Z,2.00
2022-10-23T06:29:41.924Z,2.00
2022-10-23T06:32:08.827Z,3.60
2022-10-23T06:34:36.726Z,2.72
2022-10-23T06:37:04.352Z,2.42
2022-10-23T06:39:46.170Z,3.78
2022-10-23T06:42:16.401Z,3.17
2022-10-23T06:44:55.650Z,3.30
2022-10-23T06:47:51.505Z,2.25
2022-10-23T06:50:38.457Z,1.58
2022-10-23T06:53:12.538Z,6.07
2022-10-23T06:55:45.470Z,5.32
2022-10-23T06:58:13.469Z,2.00
2022-10-23T07:00:55.332Z,5.03
2022-10-23T07:03:22.605Z,2.90
2022-10-23T07:05:49.631Z,2.40
2022-10-23T07:08:16.765Z,4.38
2022-10-23T07:10:47.970Z,4.55
2022-10-23T07:13:14.865Z,3.60
2022-10-23T07:15:56.670Z,3.35
2022-10-23T07:18:25.963Z,2.78
2022-10-23T07:21:19.282Z,2.40
2022-10-23T07:23:47.562Z,2.83
2022-10-23T07:26:17.014Z,2.13
2022-10-23T07:28:46.457Z,3.25
2022-10-23T07:31:17.973Z,1.90
2022-10-23T07:34:03.786Z,3.40
2022-10-23T07:36:30.754Z,4.25
2022-10-23T07:38:57.805Z,2.00
2022-10-23T07:41:25.245Z,2.05
2022-10-23T07:43:52.094Z,4.00
2022-10-23T07:46:19.449Z,10.23
2022-10-23T07:48:46.294Z,20.80
2022-10-23T07:51:15.225Z,3.60
2022-10-23T07:53:48.362Z,2.75
2022-10-23T07:56:38.519Z,3.55
2022-10-23T07:59:23.659Z,2.17
2022-10-23T08:01:56.614Z,2.35
2022-10-23T08:04:29.864Z,2.25
2022-10-23T08:07:01.291Z,2.00
2022-10-23T08:09:32.112Z,2.90
2022-10-23T08:11:59.758Z,5.05
2022-10-23T08:14:28.633Z,2.72
2022-10-23T08:16:55.801Z,3.03
2022-10-23T08:19:46.538Z,3.78
2022-10-23T08:22:14.836Z,3.28
2022-10-23T08:24:41.838Z,4.22
2022-10-23T08:27:08.697Z,4.60
2022-10-23T08:29:41.930Z,2.08
2022-10-23T08:32:09.370Z,2.38
2022-10-23T08:34:56.581Z,3.92
2022-10-23T08:37:24.861Z,1.92
2022-10-23T08:39:53.344Z,5.53
2022-10-23T08:42:27.671Z,2.95
2022-10-23T08:45:21.536Z,3.03
2022-10-23T08:47:55.869Z,2.92
2022-10-23T08:51:01.147Z,2.92
2022-10-23T08:53:32.670Z,2.45
2022-10-23T08:56:04.509Z,3.85
2022-10-23T08:58:46.067Z,3.17
2022-10-23T09:01:34.050Z,2.13
2022-10-23T09:04:02.128Z,3.47
2022-10-23T09:06:40.189Z,2.00
2022-10-23T09:09:25.147Z,3.17
2022-10-23T09:12:09.586Z,1.75
2022-10-23T09:14:55.087Z,3.42
2022-10-23T09:17:29.882Z,3.78
2022-10-23T09:20:23.510Z,3.88
2022-10-23T09:22:55.178Z,3.42
2022-10-23T09:25:29.182Z,4.25
2022-10-23T09:28:00.177Z,3.25
2022-10-23T09:30:40.769Z,2.75
2022-10-23T09:33:28.570Z,2.15
2022-10-23T09:35:58.844Z,3.20
2022-10-23T09:38:30.496Z,2.55
2022-10-23T09:41:01.729Z,5.78
2022-10-23T09:43:29.383Z,3.75
2022-10-23T09:46:06.130Z,8.15
2022-10-23T09:48:35.711Z,4.68
2022-10-23T09:51:04.494Z,4.00
2022-10-23T09:53:35.686Z,3.05
2022-10-23T09:56:07.886Z,2.78
2022-10-23T09:58:43.421Z,2.05
2022-10-23T10:01:28.189Z,4.35
2022-10-23T10:04:05.608Z,2.95
2022-10-23T10:06:34.702Z,3.83
2022-10-23T10:09:13.082Z,7.82
2022-10-23T10:12:00.148Z,4.65
2022-10-23T10:14:32.706Z,3.13
2022-10-23T10:17:09.606Z,4.68
2022-10-23T10:19:56.266Z,2.50
2022-10-23T10:23:03.972Z,5.32
2022-10-23T10:26:04.549Z,5.10
2022-10-23T10:28:41.916Z,3.30
2022-10-23T10:31:53.341Z,3.03
2022-10-23T10:34:30.399Z,3.75
2022-10-23T10:37:26.438Z,9.52
2022-10-23T10:39:55.941Z,10.05
2022-10-23T10:42:55.663Z,6.43
2022-10-23T10:45:41.841Z,8.50
2022-10-23T10:48:38.849Z,5.93
2022-10-23T10:51:51.662Z,5.13
2022-10-23T10:54:56.002Z,5.70
2022-10-23T10:57:31.461Z,5.80
2022-10-23T11:00:03.804Z,3.58
2022-10-23T11:02:48.037Z,5.85
2022-10-23T11:05:31.247Z,4.78
2022-10-23T11:08:15.893Z,4.53
2022-10-23T11:10:46.435Z,6.47
2022-10-23T11:13:35.522Z,3.75
2022-10-23T11:16:09.746Z,3.80
2022-10-23T11:18:37.780Z,3.38
2022-10-23T11:21:39.570Z,4.65
2022-10-23T11:24:15.292Z,3.80
2022-10-23T11:27:23.061Z,3.28
2022-10-23T11:29:52.451Z,4.70
2022-10-23T11:32:49.209Z,9.75
2022-10-23T11:35:34.322Z,2.97
2022-10-23T11:38:19.378Z,2.58
2022-10-23T11:40:52.765Z,3.25
2022-10-23T11:43:31.173Z,4.20
2022-10-23T11:45:58.474Z,2.83
2022-10-23T11:48:40.640Z,6.25
2022-10-23T11:51:36.499Z,2.53
2022-10-23T11:54:13.554Z,2.45
2022-10-23T11:57:10.378Z,5.28
2022-10-23T11:59:56.038Z,4.45
2022-10-23T12:02:32.978Z,4.28
2022-10-23T12:05:07.358Z,2.22
2022-10-23T12:07:37.704Z,4.30
2022-10-23T12:10:21.256Z,2.78
2022-10-23T12:13:05.451Z,3.45
2022-10-23T12:15:36.539Z,2.88
2022-10-23T12:18:29.802Z,3.15
2022-10-23T12:21:04.656Z,2.58
2022-10-23T12:23:49.640Z,9.95
2022-10-23T12:26:39.597Z,4.70
2022-10-23T12:29:24.252Z,2.80
2022-10-23T12:32:20.987Z,4.43
2022-10-23T12:35:06.592Z,2.60
2022-10-23T12:37:54.666Z,2.40
2022-10-23T12:40:22.179Z,2.70
2022-10-23T12:42:55.378Z,2.30
2022-10-23T12:45:37.507Z,2.22
2022-10-23T12:48:04.761Z,2.42
2022-10-23T12:50:33.730Z,4.28
2022-10-23T12:53:05.232Z,4.30
2022-10-23T12:58:33.433Z,5.13
2022-10-23T13:01:06.161Z,2.40
2022-10-23T13:03:34.312Z,3.53
2022-10-23T13:06:03.096Z,2.00
2022-10-23T13:08:43.598Z,3.33
2022-10-23T13:11:46.132Z,1.85
2022-10-23T13:14:31.116Z,3.17
2022-10-23T13:17:06.939Z,1.90
2022-10-23T13:19:34.184Z,2.45
2022-10-23T13:22:04.097Z,2.40
2022-10-23T13:24:31.741Z,2.83
2022-10-23T13:26:59.168Z,5.15
2022-10-23T13:29:34.467Z,1.83
2022-10-23T13:32:23.789Z,2.85
2022-10-23T13:35:10.175Z,2.47
2022-10-23T13:40:27.699Z,1.73
2022-10-23T13:42:56.048Z,2.38
2022-10-23T13:45:25.829Z,1.67
2022-10-23T13:47:52.748Z,3.10
2022-10-23T13:50:20.195Z,2.65
2022-10-23T13:52:48.081Z,1.90
2022-10-23T13:55:22.986Z,4.03
2022-10-23T13:57:49.962Z,1.85
2022-10-23T14:00:18.249Z,2.58
2022-10-23T14:02:45.429Z,3.22
2022-10-23T14:05:12.480Z,2.83
2022-10-23T14:07:39.477Z,2.75
2022-10-23T14:10:06.981Z,3.33
2022-10-23T14:12:43.161Z,1.70
2022-10-23T14:15:11.343Z,3.22
2022-10-23T14:17:38.412Z,3.13
2022-10-23T14:20:06.638Z,2.33
2022-10-23T14:22:33.733Z,1.85
2022-10-23T14:25:00.711Z,1.80
2022-10-23T14:27:27.670Z,3.60
2022-10-23T14:29:54.500Z,5.28
2022-10-23T14:32:21.367Z,1.88
2022-10-23T14:34:55.275Z,2.08
2022-10-23T14:37:22.686Z,1.90
2022-10-23T14:39:50.357Z,2.05
2022-10-23T14:42:18.180Z,4.60
2022-10-23T14:44:45.304Z,2.25
2022-10-23T14:47:12.410Z,3.10
2022-10-23T14:49:40.292Z,2.30
2022-10-23T14:52:07.613Z,1.55
2022-10-23T14:54:36.302Z,3.10
2022-10-23T14:57:04.127Z,3.13
2022-10-23T14:59:31.063Z,4.53
2022-10-23T15:01:57.968Z,3.10
2022-10-23T15:04:25.007Z,2.58
2022-10-23T15:06:52.670Z,2.50
2022-10-23T15:09:20.310Z,1.83
2022-10-23T15:11:47.686Z,2.88
2022-10-23T15:14:14.572Z,1.90
2022-10-23T15:16:42.071Z,2.67
2022-10-23T15:19:17.384Z,4.72
2022-10-23T15:21:46.979Z,3.83
2022-10-23T15:24:15.300Z,4.47
2022-10-23T15:26:44.955Z,2.30
2022-10-23T15:29:12.164Z,4.13
2022-10-23T15:31:40.816Z,4.68
2022-10-23T15:34:13.764Z,1.95
2022-10-23T15:36:42.983Z,4.32
2022-10-23T15:39:11.396Z,2.75
2022-10-23T15:41:40.666Z,2.53
2022-10-23T15:44:09.766Z,2.60
2022-10-23T15:46:36.737Z,4.63
2022-10-23T15:49:04.398Z,5.95
2022-10-23T15:51:31.500Z,3.00
2022-10-23T15:53:58.572Z,1.92
2022-10-23T15:56:25.740Z,2.38
2022-10-23T15:58:52.637Z,3.75
2022-10-23T16:01:19.854Z,10.65
2022-10-23T16:03:47.002Z,5.28
2022-10-23T16:06:17.890Z,10.90
2022-10-23T16:08:44.962Z,4.53
2022-10-23T16:11:19.647Z,2.92
2022-10-23T16:13:47.629Z,7.30
2022-10-23T16:16:14.960Z,3.83
2022-10-23T16:18:43.734Z,6.68
2022-10-23T16:21:18.933Z,5.70
2022-10-23T16:23:46.376Z,7.70
2022-10-23T16:26:13.544Z,5.25
2022-10-23T16:28:40.740Z,4.22
2022-10-23T16:31:26.587Z,4.03
2022-10-23T16:33:54.436Z,5.32
2022-10-23T16:36:21.307Z,4.40
2022-10-23T16:39:08.492Z,4.50
2022-10-23T16:41:54.005Z,5.15
2022-10-23T16:44:23.631Z,2.53
2022-10-23T16:46:58.501Z,12.18
2022-10-23T16:49:25.514Z,19.98
2022-10-23T16:51:52.377Z,10.20
2022-10-23T16:54:19.383Z,15.50
2022-10-23T16:56:47.330Z,19.13
2022-10-23T16:59:14.543Z,6.78
2022-10-23T17:01:41.390Z,12.75
2022-10-23T17:04:08.829Z,14.02
2022-10-23T17:06:36.730Z,6.43
2022-10-23T17:09:05.120Z,4.57
2022-10-23T17:11:40.300Z,6.13
2022-10-23T17:14:11.564Z,12.52
2022-10-23T17:16:43.008Z,6.93
2022-10-23T17:19:20.558Z,8.18
2022-10-23T17:21:55.598Z,9.00
2022-10-23T17:24:23.541Z,11.82
2022-10-23T17:26:50.608Z,14.00
2022-10-23T17:29:18.369Z,16.73
2022-10-23T17:31:50.229Z,11.77
2022-10-23T17:34:20.813Z,10.13
2022-10-23T17:36:50.275Z,10.75
2022-10-23T17:39:20.071Z,10.13
2022-10-23T17:41:47.574Z,8.07
2022-10-23T17:44:14.685Z,6.78
2022-10-23T17:46:41.749Z,5.53
2022-10-23T17:49:09.830Z,8.15
2022-10-23T17:51:36.775Z,5.50
2022-10-23T17:54:06.740Z,7.75
2022-10-23T17:56:36.505Z,9.60
2022-10-23T17:59:09.728Z,7.55
2022-10-23T18:01:37.087Z,9.07
2022-10-23T18:04:06.523Z,7.85
2022-10-23T18:06:42.870Z,11.25
2022-10-23T18:09:09.874Z,10.35
2022-10-23T18:11:43.863Z,11.35
2022-10-23T18:14:16.148Z,7.22
2022-10-23T18:16:43.034Z,8.70
2022-10-23T18:19:11.179Z,7.00
2022-10-23T18:21:39.396Z,8.68
2022-10-23T18:24:06.415Z,6.53
2022-10-23T18:26:35.215Z,5.35
2022-10-23T18:29:04.891Z,5.05
2022-10-23T18:31:31.955Z,7.88
2022-10-23T18:34:01.689Z,12.27
2022-10-23T18:36:31.628Z,4.97
2022-10-23T18:38:59.120Z,7.63
2022-10-23T18:41:26.549Z,7.25
2022-10-23T18:43:54.636Z,4.60
2022-10-23T18:46:22.351Z,7.40
2022-10-23T18:48:52.808Z,9.00
2022-10-23T18:51:22.971Z,10.23
2022-10-23T18:53:50.629Z,5.68
2022-10-23T18:56:22.677Z,4.95
2022-10-23T18:58:50.918Z,5.45
2022-10-23T19:01:19.210Z,5.57
2022-10-23T19:03:46.541Z,10.77
2022-10-23T19:06:14.168Z,6.68
2022-10-23T19:08:43.046Z,6.95
2022-10-23T19:11:11.684Z,6.78
2022-10-23T19:13:40.441Z,6.45
2022-10-23T19:16:18.135Z,4.70
2022-10-23T19:18:54.130Z,5.75
2022-10-23T19:21:24.461Z,7.53
2022-10-23T19:23:52.352Z,6.60
2022-10-23T19:26:19.297Z,7.07
2022-10-23T19:28:48.684Z,4.90
2022-10-23T19:31:16.065Z,3.42
2022-10-23T19:33:42.987Z,12.75
2022-10-23T19:36:14.137Z,3.85
2022-10-23T19:38:42.207Z,5.97
2022-10-23T19:41:09.627Z,14.35
2022-10-23T19:43:37.830Z,16.20
2022-10-23T19:46:09.360Z,20.10
2022-10-23T19:48:43.615Z,8.85
2022-10-23T19:51:12.990Z,4.80
2022-10-23T19:53:41.284Z,10.65
2022-10-23T19:56:10.087Z,14.10
2022-10-23T19:58:37.416Z,9.05
2022-10-23T20:01:09.612Z,7.75
2022-10-23T20:03:37.392Z,9.57
2022-10-23T20:06:04.655Z,6.97
2022-10-23T20:08:34.972Z,8.38
2022-10-23T20:11:02.297Z,7.85
2022-10-23T20:13:29.166Z,7.25
2022-10-23T20:15:56.024Z,6.82
2022-10-23T20:18:22.940Z,10.20
2022-10-23T20:20:49.840Z,9.13
2022-10-23T20:23:16.735Z,7.97
2022-10-23T20:25:43.875Z,4.15
2022-10-23T20:28:14.238Z,3.95
2022-10-23T20:30:44.087Z,6.60
2022-10-23T20:33:10.972Z,7.50
2022-10-23T20:35:42.002Z,5.25
2022-10-23T20:38:09.626Z,15.48
2022-10-23T20:40:38.390Z,14.02
2022-10-23T20:43:05.247Z,13.32
2022-10-23T20:45:32.056Z,14.85
2022-10-23T20:47:59.189Z,12.20
2022-10-23T20:50:25.989Z,11.20
2022-10-23T20:52:53.026Z,7.20
2022-10-23T20:55:19.887Z,8.32
2022-10-23T20:57:47.139Z,4.88
2022-10-23T21:00:15.696Z,8.48
2022-10-23T21:02:45.784Z,11.68
2022-10-23T21:05:14.359Z,9.35
2022-10-23T21:07:41.169Z,11.77
2022-10-23T21:10:08.452Z,10.80
2022-10-23T21:12:35.547Z,9.80
2022-10-23T21:15:06.222Z,10.90
2022-10-23T21:17:36.086Z,8.07
2022-10-23T21:20:03.256Z,8.13
2022-10-23T21:22:30.145Z,7.40
2022-10-23T21:24:58.463Z,11.50
2022-10-23T21:27:25.366Z,9.80
2022-10-23T21:29:52.323Z,8.55
2022-10-23T21:32:20.350Z,6.28
2022-10-23T21:34:47.171Z,12.30
2022-10-23T21:37:14.841Z,7.57
2022-10-23T21:39:43.498Z,7.78
2022-10-23T21:42:12.080Z,5.95
2022-10-23T21:44:38.888Z,10.65
2022-10-23T21:47:05.855Z,11.93
2022-10-23T21:49:32.656Z,5.10
2022-10-23T21:51:59.550Z,7.90
2022-10-23T21:54:26.439Z,11.15
2022-10-23T21:56:53.873Z,4.07
2022-10-23T21:59:24.374Z,8.90
2022-10-23T22:01:52.769Z,5.22
2022-10-23T22:04:20.381Z,9.43
2022-10-23T22:06:49.618Z,6.03
2022-10-23T22:09:19.708Z,4.70
2022-10-23T22:11:48.765Z,6.07
2022-10-23T22:14:15.941Z,4.32
2022-10-23T22:16:42.954Z,7.18
2022-10-23T22:19:14.994Z,5.88
2022-10-23T22:21:42.314Z,7.28
2022-10-23T22:24:09.745Z,4.50
2022-10-23T22:26:39.413Z,5.60
2022-10-23T22:29:13.447Z,9.82
2022-10-23T22:31:44.151Z,3.85
2022-10-23T22:34:26.777Z,7.15
2022-10-23T22:37:04.180Z,4.97
2022-10-23T22:39:31.051Z,6.15
2022-10-23T22:41:57.876Z,8.50
2022-10-23T22:44:24.772Z,2.70
2022-10-23T22:46:51.554Z,5.15
2022-10-23T22:49:18.590Z,5.15
2022-10-23T22:51:45.433Z,6.63
2022-10-23T22:54:12.659Z,5.18
2022-10-23T22:56:39.603Z,4.30
2022-10-23T22:59:06.420Z,2.42
2022-10-23T23:01:35.602Z,4.80
2022-10-23T23:04:13.794Z,3.90
2022-10-23T23:06:49.712Z,8.80
2022-10-23T23:09:18.111Z,5.53
2022-10-23T23:11:52.040Z,4.80
2022-10-23T23:14:23.036Z,4.45
2022-10-23T23:16:53.922Z,3.10
2022-10-23T23:19:22.960Z,4.80
2022-10-23T23:21:50.291Z,4.10
2022-10-23T23:24:17.289Z,4.55
2022-10-23T23:26:44.167Z,7.22
2022-10-23T23:29:11.390Z,3.53
2022-10-23T23:31:38.542Z,2.63
2022-10-23T23:34:05.354Z,2.95
2022-10-23T23:36:33.897Z,5.80
2022-10-23T23:39:01.451Z,4.32
2022-10-23T23:41:29.286Z,5.10
2022-10-23T23:43:58.445Z,6.55
2022-10-23T23:46:25.755Z,3.83
2022-10-23T23:48:52.665Z,2.10
2022-10-23T23:51:25.228Z,2.42
2022-10-23T23:53:52.603Z,5.05
2022-10-23T23:56:19.965Z,6.15
2022-10-23T23:58:46.893Z,3.38
